ニジニ・ノヴゴロド の空港の天気 - METARとTAF

ニジニ・ノヴゴロド国際空港 ( UWGG / GOJ ) - ロシア ニジニ・ノヴゴロド
飛行場実況気象(Metar)
観測時間04/24 19:00 MSK (04/24 16:00 UTC)
風向・風速北北西 4m/s
視程10km以上
天気現象
なし
気温19℃
湿度32%
気圧1020hPa
METARUWGG 241600Z 34004MPS CAVOK 19/02 Q1020 R36R/090070 NOSIG
過去の天気等 Google飛行場航空写真 Wunderground天気予報

過去48時間のMETAR

飛行場予報(TAF)
発表時間: 4/24 16:50 MSK (4/24 13:50 UTC)
予報対象時間: 24日18時 MSK ~ 25日18時 MSK
風向・風速西北西 3m/s
視程10km以上
全天の8割程度の雲 雲底高度 610m
24日18時 MSK ~ 24日21時 MSK に一時的に
風向・風速北西 6m/s 瞬間風速 12m/s
TAF UWGG 241350Z 2415/2515 29003MPS 9999 BKN020 TX20/2512Z TN05/2503Z
TEMPO 2415/2418 31006G12MPS